Time;durP1;ratioP1;P1;durP2;ratioP2;P2;SDS_P1;SDS_P2;PMS_P1;PMS_P2;Temp;Humidity;BMP_temperature;BMP_pressure;BME280_temperature;BME280_humidity;BME280_pressure;Samples;Min_cycle;Max_cycle;Signal;HPM_P1;HPM_P2
2022/09/24 00:01:12;;;;;;;12.07;6.32;;;11.70;99.90;;;;;;5077687;28;20020;-81
2022/09/24 00:03:39;;;;;;;12.13;7.60;;;11.60;99.90;;;;;;5095663;28;20028;-87
2022/09/24 00:06:06;;;;;;;12.52;6.95;;;11.60;99.90;;;;;;5097472;28;20036;-85
2022/09/24 00:08:33;;;;;;;13.35;7.10;;;;;;;;;;5080529;28;20052;-84
2022/09/24 00:11:05;;;;;;;10.15;6.82;;;11.50;99.90;;;;;;5071964;28;20027;-82
2022/09/24 00:13:31;;;;;;;10.40;6.63;;;;;;;;;;5078826;28;20048;-83
2022/09/24 00:16:02;;;;;;;11.48;7.25;;;11.40;99.90;;;;;;5074927;28;20028;-85
2022/09/24 00:18:29;;;;;;;12.07;6.78;;;;;;;;;;5078106;28;20024;-85
2022/09/24 00:20:55;;;;;;;10.65;7.40;;;;;;;;;;5075418;28;20046;-84
2022/09/24 00:23:21;;;;;;;12.82;6.85;;;;;;;;;;5096625;28;20012;-85
2022/09/24 00:28:32;;;;;;;14.75;7.63;;;11.30;99.90;;;;;;5094652;28;20069;-83
2022/09/24 00:30:58;;;;;;;9.40;5.97;;;11.20;99.90;;;;;;5076317;28;20028;-80
2022/09/24 00:33:27;;;;;;;9.93;6.05;;;;;;;;;;5076383;28;20066;-86
2022/09/24 00:36:00;;;;;;;10.23;6.32;;;11.20;99.90;;;;;;5080763;28;20063;-84
2022/09/24 00:38:26;;;;;;;9.60;6.25;;;;;;;;;;5077874;28;20091;-84
2022/09/24 00:40:52;;;;;;;9.18;6.13;;;;;;;;;;5081963;28;20024;-87
2022/09/24 00:43:37;;;;;;;11.90;6.13;;;11.10;99.90;;;;;;5078910;28;20020;-84
2022/09/24 00:46:26;;;;;;;12.35;7.00;;;11.10;99.90;;;;;;5075461;28;20016;-82
2022/09/24 00:49:08;;;;;;;10.77;5.90;;;11.10;99.90;;;;;;5094766;28;20501;-83
2022/09/24 00:51:34;;;;;;;11.57;6.55;;;11.30;99.90;;;;;;5078322;28;20481;-83
2022/09/24 00:54:04;;;;;;;11.32;6.53;;;11.00;99.90;;;;;;5076656;28;20029;-84
2022/09/24 00:56:35;;;;;;;12.00;6.68;;;11.00;99.90;;;;;;5058292;28;20215;-87
2022/09/24 00:59:03;;;;;;;13.40;6.22;;;11.00;99.90;;;;;;5093668;28;20028;-83
2022/09/24 01:01:29;;;;;;;10.15;6.40;;;10.90;99.90;;;;;;5080143;28;20107;-87
2022/09/24 01:03:56;;;;;;;9.73;6.45;;;10.90;99.90;;;;;;5082784;28;20177;-85
2022/09/24 01:06:23;;;;;;;11.68;6.90;;;10.90;99.90;;;;;;5079319;28;20031;-84
2022/09/24 01:08:49;;;;;;;13.82;6.78;;;;;;;;;;5084074;28;20020;-86
2022/09/24 01:11:45;;;;;;;10.50;6.72;;;10.90;99.90;;;;;;5079933;28;20031;-85
2022/09/24 01:14:41;;;;;;;12.85;7.20;;;10.90;99.90;;;;;;5073586;28;20023;-82
2022/09/24 01:17:13;;;;;;;11.30;6.47;;;;;;;;;;5097470;28;20031;-83
2022/09/24 01:20:08;;;;;;;12.75;6.38;;;10.80;99.90;;;;;;5099447;28;20024;-86
2022/09/24 01:22:46;;;;;;;11.50;6.43;;;10.80;99.90;;;;;;5077081;28;20036;-85
2022/09/24 01:25:12;;;;;;;10.30;6.05;;;;;;;;;;5095096;28;20020;-82
2022/09/24 01:28:09;;;;;;;13.02;6.57;;;10.70;99.90;;;;;;5096776;28;20100;-83
2022/09/24 01:30:40;;;;;;;10.40;6.63;;;10.70;99.90;;;;;;5097080;28;20474;-85
2022/09/24 01:33:16;;;;;;;10.48;6.45;;;10.70;99.90;;;;;;5078076;28;20032;-84
2022/09/24 01:35:47;;;;;;;10.50;7.13;;;10.70;99.90;;;;;;5070801;28;20029;-84
2022/09/24 01:38:20;;;;;;;9.43;6.40;;;10.70;99.90;;;;;;5079921;28;20050;-86
2022/09/24 01:40:47;;;;;;;8.38;6.00;;;10.50;99.90;;;;;;5081036;28;20051;-83
2022/09/24 01:43:15;;;;;;;11.13;6.47;;;10.50;99.90;;;;;;5079621;28;20020;-86
2022/09/24 01:45:41;;;;;;;10.45;6.65;;;10.50;99.90;;;;;;5099591;28;20028;-82
2022/09/24 01:48:07;;;;;;;13.05;6.25;;;12.30;99.90;;;;;;5098724;28;20022;-81
2022/09/24 01:51:04;;;;;;;9.80;6.20;;;10.40;99.90;;;;;;5085260;28;20024;-86
2022/09/24 01:53:46;;;;;;;9.50;5.80;;;10.50;99.90;;;;;;5084384;28;20497;-86
2022/09/24 01:56:26;;;;;;;11.82;6.55;;;10.50;99.90;;;;;;5085022;28;20020;-86
2022/09/24 01:59:22;;;;;;;12.73;6.55;;;10.50;99.90;;;;;;5098909;28;20111;-82
2022/09/24 02:01:55;;;;;;;9.13;5.88;;;10.50;99.90;;;;;;5074974;28;20039;-83
2022/09/24 02:04:24;;;;;;;25.02;11.57;;;10.40;99.90;;;;;;5104161;28;20039;-82
2022/09/24 02:07:00;;;;;;;12.63;6.88;;;12.50;99.90;;;;;;5099268;28;20028;-88
2022/09/24 02:09:39;;;;;;;11.15;6.82;;;10.40;99.90;;;;;;5096596;28;20032;-83
2022/09/24 02:12:16;;;;;;;10.07;6.72;;;10.40;99.90;;;;;;5082510;28;20020;-84
2022/09/24 02:14:51;;;;;;;9.23;6.53;;;10.40;99.90;;;;;;5081173;28;20040;-85
2022/09/24 02:17:17;;;;;;;9.90;6.38;;;12.50;99.90;;;;;;5084433;28;20053;-87
2022/09/24 02:19:45;;;;;;;15.02;7.65;;;10.40;99.90;;;;;;5084082;28;20031;-85
2022/09/24 02:22:13;;;;;;;12.30;6.57;;;10.50;99.90;;;;;;5097593;28;20028;-85
2022/09/24 02:24:43;;;;;;;12.40;6.13;;;12.00;99.90;;;;;;5100789;28;20097;-81
2022/09/24 02:27:09;;;;;;;13.25;6.55;;;;;;;;;;5097566;28;20054;-82
2022/09/24 02:29:35;;;;;;;10.05;7.00;;;10.40;99.90;;;;;;5086091;28;20052;-85
2022/09/24 02:32:04;;;;;;;13.90;7.10;;;10.40;99.90;;;;;;5086432;28;20032;-86
2022/09/24 02:34:45;;;;;;;11.38;7.20;;;10.40;99.90;;;;;;5078300;28;20050;-85
2022/09/24 02:37:13;;;;;;;10.68;7.05;;;10.40;99.90;;;;;;5080402;28;20439;-85
2022/09/24 02:39:40;;;;;;;10.88;7.13;;;10.40;99.90;;;;;;5085712;28;20032;-85
2022/09/24 02:42:08;;;;;;;11.88;7.30;;;10.40;99.90;;;;;;5086048;28;20042;-81
2022/09/24 02:44:37;;;;;;;12.05;6.97;;;10.40;99.90;;;;;;5076895;28;20051;-85
2022/09/24 02:47:05;;;;;;;11.48;6.63;;;10.40;99.90;;;;;;5083329;28;20016;-81
2022/09/24 02:49:32;;;;;;;11.80;6.78;;;;;;;;;;5082288;28;20032;-84
2022/09/24 02:51:59;;;;;;;11.45;6.60;;;10.40;99.90;;;;;;5073002;28;20084;-84
2022/09/24 02:54:25;;;;;;;14.90;7.32;;;10.40;99.90;;;;;;5086453;28;20024;-83
2022/09/24 02:56:51;;;;;;;13.45;7.28;;;10.40;99.90;;;;;;5078573;28;20054;-84
2022/09/24 02:59:18;;;;;;;13.18;7.40;;;;;;;;;;5102048;28;20051;-83
2022/09/24 03:01:44;;;;;;;11.75;7.45;;;;;;;;;;5082071;28;20029;-87
2022/09/24 03:04:10;;;;;;;12.15;6.88;;;;;;;;;;5076421;28;20031;-85
2022/09/24 03:06:36;;;;;;;22.20;8.50;;;;;;;;;;5084391;28;20400;-83
2022/09/24 03:09:03;;;;;;;12.73;7.10;;;10.40;99.90;;;;;;5083396;28;20031;-83
2022/09/24 03:11:30;;;;;;;13.35;7.18;;;10.50;99.90;;;;;;5084876;28;20138;-84
2022/09/24 03:13:57;;;;;;;12.25;7.22;;;;;;;;;;5069150;28;20058;-87
2022/09/24 03:16:23;;;;;;;11.55;6.80;;;;;;;;;;5080203;28;20035;-85
2022/09/24 03:18:49;;;;;;;11.85;7.65;;;;;;;;;;5102006;28;20016;-81
2022/09/24 03:21:18;;;;;;;12.00;7.00;;;10.50;99.90;;;;;;5075711;28;20024;-83
2022/09/24 03:23:44;;;;;;;10.90;7.55;;;;;;;;;;5065840;28;20021;-84
2022/09/24 03:26:10;;;;;;;14.02;7.30;;;;;;;;;;5084453;28;20050;-84
2022/09/24 03:28:36;;;;;;;11.32;8.13;;;;;;;;;;5083703;28;20489;-83
2022/09/24 03:31:02;;;;;;;15.23;8.95;;;;;;;;;;5080149;28;20247;-84
2022/09/24 03:33:28;;;;;;;16.70;9.05;;;;;;;;;;5093927;28;20038;-85
2022/09/24 03:36:01;;;;;;;13.68;9.23;;;10.30;99.90;;;;;;5102806;28;20107;-83
2022/09/24 03:38:28;;;;;;;14.82;9.65;;;;;;;;;;5084142;28;20048;-83
2022/09/24 03:40:54;;;;;;;15.00;10.18;;;;;;;;;;5079221;28;20073;-84
2022/09/24 03:43:20;;;;;;;17.42;10.38;;;;;;;;;;5084758;28;20030;-83
2022/09/24 03:45:45;;;;;;;13.80;9.90;;;10.30;99.90;;;;;;5101059;28;20024;-84
2022/09/24 03:48:12;;;;;;;14.95;9.63;;;;;;;;;;5080694;28;20116;-84
2022/09/24 03:50:38;;;;;;;14.82;9.52;;;;;;;;;;5081513;28;20036;-85
2022/09/24 03:53:04;;;;;;;16.92;10.48;;;;;;;;;;5084531;28;20027;-83
2022/09/24 03:55:30;;;;;;;17.58;9.88;;;;;;;;;;5084062;28;20059;-83
2022/09/24 03:57:56;;;;;;;14.90;9.73;;;;;;;;;;5080260;28;20027;-88
2022/09/24 04:00:22;;;;;;;19.42;10.13;;;;;;;;;;5098941;28;20024;-85
2022/09/24 04:02:49;;;;;;;15.80;9.77;;;;;;;;;;5097951;28;20024;-85
2022/09/24 04:05:15;;;;;;;14.82;10.20;;;;;;;;;;5097700;28;20084;-84
2022/09/24 04:07:44;;;;;;;13.77;9.68;;;;;;;;;;5081797;28;20377;-82
2022/09/24 04:10:10;;;;;;;14.60;8.52;;;;;;;;;;5077058;28;20049;-87
2022/09/24 04:12:37;;;;;;;11.65;7.88;;;;;;;;;;5072989;28;20032;-84
2022/09/24 04:15:05;;;;;;;12.50;6.85;;;;;;;;;;5082615;28;20053;-84
2022/09/24 04:17:37;;;;;;;12.77;6.97;;;;;;;;;;5081891;28;20997;-85
2022/09/24 04:20:03;;;;;;;10.20;6.95;;;;;;;;;;5084502;28;20069;-85
2022/09/24 04:22:30;;;;;;;12.55;6.72;;;;;;;;;;5071843;28;20028;-84
2022/09/24 04:24:56;;;;;;;9.70;7.10;;;;;;;;;;5080028;28;20048;-83
2022/09/24 04:27:22;;;;;;;10.68;7.13;;;;;;;;;;5083052;28;20020;-83
2022/09/24 04:29:48;;;;;;;11.82;7.38;;;10.40;99.90;;;;;;5082968;28;20099;-86
2022/09/24 04:32:14;;;;;;;12.10;7.00;;;10.50;99.90;;;;;;5078004;28;20074;-83
2022/09/24 04:34:43;;;;;;;12.57;6.95;;;;;;;;;;5081170;28;20099;-83
2022/09/24 04:37:09;;;;;;;10.90;7.50;;;;;;;;;;5097051;28;20024;-83
2022/09/24 04:39:35;;;;;;;11.45;7.28;;;;;;;;;;5088142;28;20036;-81
2022/09/24 04:42:01;;;;;;;10.40;7.25;;;;;;;;;;5073370;28;20024;-85
2022/09/24 04:44:27;;;;;;;12.15;7.28;;;;;;;;;;5086429;28;20020;-83
2022/09/24 04:46:59;;;;;;;10.85;7.65;;;;;;;;;;5090447;28;20024;-81
2022/09/24 04:49:28;;;;;;;13.52;7.82;;;;;;;;;;5073275;28;20269;-85
2022/09/24 04:51:56;;;;;;;12.85;7.70;;;10.50;99.90;;;;;;5095090;28;20431;-84
2022/09/24 04:54:22;;;;;;;12.32;8.65;;;;;;;;;;5086772;28;20119;-83
2022/09/24 04:56:48;;;;;;;14.18;9.13;;;;;;;;;;5078199;28;20040;-85
2022/09/24 04:59:14;;;;;;;16.40;9.95;;;;;;;;;;5099717;28;20101;-82
2022/09/24 05:01:40;;;;;;;13.10;9.13;;;;;;;;;;5073003;28;20042;-86
2022/09/24 05:05:12;;;;;;;;;;;;;;;;;;;;;
2022/09/24 05:07:38;;;;;;;14.20;8.23;;;;;;;;;;5089980;28;20085;-83
2022/09/24 05:10:05;;;;;;;13.38;8.18;;;;;;;;;;5076115;28;20095;-85
2022/09/24 05:12:32;;;;;;;14.15;9.15;;;;;;;;;;5076818;28;20032;-81
2022/09/24 05:14:58;;;;;;;14.77;9.52;;;;;;;;;;5077775;28;20028;-85
2022/09/24 05:17:24;;;;;;;15.77;10.32;;;;;;;;;;5080514;28;20042;-87
2022/09/24 05:19:50;;;;;;;14.73;9.88;;;;;;;;;;5084825;28;20515;-85
2022/09/24 05:22:16;;;;;;;14.25;10.13;;;;;;;;;;5085013;28;20024;-82
2022/09/24 05:24:42;;;;;;;11.95;9.07;;;;;;;;;;5085753;28;20115;-82
2022/09/24 05:27:09;;;;;;;11.82;8.60;;;;;;;;;;5085723;28;20036;-83
2022/09/24 05:29:42;;;;;;;12.57;8.63;;;10.50;99.90;;;;;;5087640;28;20148;-83
2022/09/24 05:32:14;;;;;;;16.98;9.27;;;10.60;99.90;;;;;;5102746;28;20096;-85
2022/09/24 05:34:42;;;;;;;13.55;9.80;;;10.60;99.90;;;;;;5077572;28;20367;-83
2022/09/24 05:37:08;;;;;;;15.23;9.80;;;;;;;;;;5082518;28;20485;-86
2022/09/24 05:39:34;;;;;;;17.67;10.90;;;;;;;;;;5103517;28;20032;-86
2022/09/24 05:42:03;;;;;;;16.27;10.68;;;;;;;;;;5084461;28;20073;-86
2022/09/24 05:44:30;;;;;;;17.60;10.70;;;;;;;;;;5087469;28;20065;-85
2022/09/24 05:46:56;;;;;;;14.88;10.13;;;10.70;99.90;;;;;;5095828;28;20423;-81
2022/09/24 05:49:25;;;;;;;16.33;11.07;;;10.60;99.90;;;;;;5101777;28;20016;-83
2022/09/24 05:51:51;;;;;;;14.07;10.70;;;12.40;99.90;;;;;;5078028;28;20032;-86
2022/09/24 05:54:18;;;;;;;14.98;10.80;;;10.80;99.90;;;;;;5085282;28;20158;-82
2022/09/24 05:56:44;;;;;;;17.40;11.38;;;10.80;99.90;;;;;;5094984;28;20021;-84
2022/09/24 05:59:10;;;;;;;16.02;10.90;;;12.70;99.90;;;;;;5074382;28;20016;-86
2022/09/24 06:01:35;;;;;;;15.80;11.00;;;10.70;99.90;;;;;;5082368;28;20032;-82
2022/09/24 06:04:01;;;;;;;19.92;12.38;;;11.00;99.90;;;;;;5074639;28;20104;-81
2022/09/24 06:06:27;;;;;;;19.65;11.68;;;11.90;99.90;;;;;;5072486;28;20047;-83
2022/09/24 06:08:54;;;;;;;17.77;11.32;;;;;;;;;;5084354;28;20039;-86
2022/09/24 06:11:28;;;;;;;18.58;11.75;;;10.70;99.90;;;;;;5069082;28;20028;-85
2022/09/24 06:13:54;;;;;;;18.83;12.18;;;13.30;99.90;;;;;;5094038;28;20031;-84
2022/09/24 06:16:20;;;;;;;16.00;11.13;;;;;;;;;;5098491;28;20016;-83
2022/09/24 06:18:46;;;;;;;17.67;11.95;;;;;;;;;;5100623;28;20032;-85
2022/09/24 06:21:16;;;;;;;20.05;12.90;;;10.80;99.90;;;;;;5102019;28;20028;-83
2022/09/24 06:23:44;;;;;;;21.13;11.95;;;10.90;99.90;;;;;;5082615;28;20024;-86
2022/09/24 06:26:11;;;;;;;17.15;11.00;;;11.00;99.90;;;;;;5083578;28;20032;-83
2022/09/24 06:28:37;;;;;;;14.25;8.95;;;;;;;;;;5072232;28;20025;-86
2022/09/24 06:31:04;;;;;;;13.25;9.07;;;;;;;;;;5079961;28;20115;-84
2022/09/24 06:33:31;;;;;;;14.32;8.25;;;;;;;;;;5083992;28;20042;-85
2022/09/24 06:36:02;;;;;;;13.88;8.70;;;11.10;99.90;;;;;;5081346;28;20020;-85
2022/09/24 06:38:28;;;;;;;12.70;8.52;;;;;;;;;;5080492;28;20024;-86
2022/09/24 06:41:03;;;;;;;15.27;8.18;;;11.20;99.90;;;;;;5063014;28;20059;-83
2022/09/24 06:43:30;;;;;;;11.85;8.30;;;;;;;;;;5101312;28;20024;-84
2022/09/24 06:45:57;;;;;;;13.05;8.32;;;11.30;99.90;;;;;;5101122;28;20470;-86
2022/09/24 06:48:23;;;;;;;12.25;8.48;;;;;;;;;;5103200;28;20019;-84
2022/09/24 06:50:50;;;;;;;10.57;7.97;;;;;;;;;;5097699;28;20050;-81
2022/09/24 06:53:17;;;;;;;12.45;8.63;;;;;;;;;;5079581;28;20425;-83
2022/09/24 06:55:43;;;;;;;14.65;9.10;;;;;;;;;;5084904;28;20074;-87
2022/09/24 06:58:11;;;;;;;14.05;9.25;;;11.40;99.90;;;;;;5085004;28;20028;-85
2022/09/24 07:00:37;;;;;;;15.48;8.70;;;;;;;;;;5088117;28;20028;-84
2022/09/24 07:03:05;;;;;;;13.65;9.18;;;11.50;99.90;;;;;;5082440;28;20099;-84
2022/09/24 07:05:34;;;;;;;12.38;8.13;;;;;;;;;;5066643;28;20024;-82
2022/09/24 07:08:00;;;;;;;12.15;8.05;;;;;;;;;;5088093;28;20035;-86
2022/09/24 07:10:26;;;;;;;12.07;8.02;;;;;;;;;;5071219;28;20031;-83
2022/09/24 07:12:53;;;;;;;15.10;8.38;;;;;;;;;;5080860;28;20025;-84
2022/09/24 07:15:19;;;;;;;13.07;8.30;;;;;;;;;;5082371;28;20075;-85
2022/09/24 07:17:45;;;;;;;11.52;8.20;;;11.60;99.90;;;;;;5084293;28;20028;-85
2022/09/24 07:20:11;;;;;;;9.30;7.18;;;;;;;;;;5091100;28;20047;-81
2022/09/24 07:22:39;;;;;;;10.40;7.50;;;11.80;99.90;;;;;;5076771;28;20047;-87
2022/09/24 07:25:09;;;;;;;12.93;8.20;;;11.80;99.90;;;;;;5098741;28;20469;-84
2022/09/24 07:27:38;;;;;;;10.13;7.60;;;;;;;;;;5098899;28;20039;-83
2022/09/24 07:30:06;;;;;;;12.10;7.82;;;12.00;99.90;;;;;;5076652;28;20021;-82
2022/09/24 07:32:32;;;;;;;10.07;7.78;;;;;;;;;;5073987;28;20059;-86
2022/09/24 07:34:58;;;;;;;12.55;7.78;;;;;;;;;;5083807;28;20076;-85
2022/09/24 07:37:24;;;;;;;14.38;8.02;;;;;;;;;;5079991;28;20028;-85
2022/09/24 07:39:50;;;;;;;9.32;7.28;;;;;;;;;;5078367;28;20028;-84
2022/09/24 07:42:16;;;;;;;8.38;6.75;;;;;;;;;;5106753;28;20028;-84
2022/09/24 07:44:45;;;;;;;11.43;8.00;;;;;;;;;;5107977;28;20468;-82
2022/09/24 07:47:12;;;;;;;10.73;7.78;;;;;;;;;;5089943;28;20287;-84
2022/09/24 07:49:38;;;;;;;11.93;7.82;;;;;;;;;;5104458;28;20049;-84
2022/09/24 07:52:04;;;;;;;12.90;8.70;;;;;;;;;;5092587;28;20042;-82
2022/09/24 07:54:31;;;;;;;14.07;9.15;;;;;;;;;;5077331;28;20016;-84
2022/09/24 07:56:57;;;;;;;12.00;8.77;;;12.60;99.90;;;;;;5091694;28;20077;-85
2022/09/24 07:59:23;;;;;;;16.48;8.80;;;;;;;;;;5073390;28;20036;-85
2022/09/24 08:01:49;;;;;;;13.98;8.90;;;;;;;;;;5076800;28;20077;-84
2022/09/24 08:04:18;;;;;;;15.25;9.05;;;;;;;;;;5069334;28;20028;-84
2022/09/24 08:06:44;;;;;;;13.65;10.00;;;;;;;;;;5071525;28;20054;-83
2022/09/24 08:09:10;;;;;;;14.85;9.07;;;;;;;;;;5091069;28;20021;-83
2022/09/24 08:11:39;;;;;;;14.77;9.60;;;;;;;;;;5099298;28;20409;-80
2022/09/24 08:14:05;;;;;;;13.93;8.80;;;;;;;;;;5066467;28;20023;-83
2022/09/24 08:16:32;;;;;;;14.38;8.77;;;;;;;;;;5088191;28;20032;-81
2022/09/24 08:19:00;;;;;;;10.65;7.80;;;;;;;;;;5098659;28;20028;-85
2022/09/24 08:21:27;;;;;;;12.55;8.95;;;;;;;;;;5077421;28;20016;-83
2022/09/24 08:23:54;;;;;;;10.02;8.02;;;;;;;;;;5073471;28;20076;-84
2022/09/24 08:26:20;;;;;;;12.77;8.25;;;;;;;;;;5101556;28;20489;-83
2022/09/24 08:28:48;;;;;;;11.95;7.70;;;13.80;99.90;;;;;;5100452;28;20028;-86
2022/09/24 08:31:14;;;;;;;10.95;7.40;;;;;;;;;;5076820;28;20049;-82
2022/09/24 08:33:40;;;;;;;10.60;7.20;;;;;;;;;;5081201;28;20028;-84
2022/09/24 08:36:08;;;;;;;10.10;7.00;;;14.00;99.90;;;;;;5101077;28;20020;-84
2022/09/24 08:38:34;;;;;;;12.65;6.45;;;14.10;99.90;;;;;;5089302;28;20487;-84
2022/09/24 08:41:14;;;;;;;10.13;6.70;;;14.20;99.90;;;;;;5095697;28;20028;-85
2022/09/24 08:43:40;;;;;;;10.80;6.05;;;;;;;;;;5073978;28;20016;-82
2022/09/24 08:49:09;;;;;;;9.27;6.05;;;14.90;99.90;;;;;;5100896;28;20515;-82
2022/09/24 08:51:44;;;;;;;10.40;6.57;;;15.20;99.90;;;;;;5100139;28;20032;-85
2022/09/24 08:54:13;;;;;;;7.75;5.88;;;15.30;99.90;;;;;;5100629;28;20024;-84
2022/09/24 08:56:42;;;;;;;9.13;5.93;;;15.20;99.90;;;;;;5081376;28;20028;-85
2022/09/24 08:59:26;;;;;;;8.85;6.32;;;14.60;99.90;;;;;;5102484;28;20092;-83
2022/09/24 09:02:12;;;;;;;10.13;5.75;;;15.40;99.90;;;;;;5093892;28;20081;-84
2022/09/24 09:04:48;;;;;;;11.35;5.57;;;15.60;99.90;;;;;;5081876;28;20115;-82
2022/09/24 09:07:20;;;;;;;11.38;5.88;;;15.90;99.90;;;;;;5107722;28;20020;-84
2022/09/24 09:09:55;;;;;;;11.30;5.75;;;15.90;99.90;;;;;;5090660;28;20024;-85
2022/09/24 09:12:25;;;;;;;7.70;5.35;;;16.80;99.90;;;;;;5089396;28;20044;-83
2022/09/24 09:14:50;;;;;;;;;;;16.70;99.90;;;;;;5082483;28;20027;-83
2022/09/24 09:17:22;;;;;;;9.57;5.40;;;17.20;99.90;;;;;;5088231;28;19971;-82
2022/09/24 09:19:54;;;;;;;6.82;5.15;;;17.20;99.90;;;;;;5104066;28;20080;-83
2022/09/24 09:22:25;;;;;;;8.90;5.30;;;17.00;99.90;;;;;;5105514;28;20020;-84
2022/09/24 09:24:53;;;;;;;8.43;5.32;;;17.10;99.90;;;;;;5090893;28;20020;-84
2022/09/24 09:27:20;;;;;;;6.82;5.28;;;16.90;99.90;;;;;;5085025;28;20032;-83
2022/09/24 09:29:56;;;;;;;7.10;4.93;;;16.80;99.90;;;;;;5079736;28;20028;-83
2022/09/24 09:32:56;;;;;;;7.57;4.93;;;16.80;99.90;;;;;;5082785;28;20024;-84
2022/09/24 09:35:33;;;;;;;8.00;5.40;;;16.80;99.90;;;;;;5084987;28;20009;-81
2022/09/24 09:38:22;;;;;;;9.25;6.13;;;16.80;99.90;;;;;;5081112;28;20046;-81
2022/09/24 09:41:02;;;;;;;10.65;6.25;;;16.70;99.90;;;;;;5097777;28;20193;-83
2022/09/24 09:43:28;;;;;;;8.75;6.20;;;16.70;99.90;;;;;;5080917;28;20016;-81
2022/09/24 09:45:54;;;;;;;11.00;6.47;;;;;;;;;;5079706;28;20024;-83
2022/09/24 09:48:22;;;;;;;10.48;6.63;;;16.70;99.90;;;;;;5100737;28;20024;-82
2022/09/24 09:50:59;;;;;;;10.70;6.60;;;16.70;99.90;;;;;;5082665;28;20024;-83
2022/09/24 09:53:32;;;;;;;10.20;6.30;;;16.70;99.90;;;;;;5102613;28;20017;-83
2022/09/24 09:56:04;;;;;;;11.27;6.38;;;16.80;99.90;;;;;;5082008;28;20020;-83
2022/09/24 09:59:06;;;;;;;10.93;6.20;;;16.70;99.90;;;;;;5104005;28;20027;-82
2022/09/24 10:01:36;;;;;;;9.45;6.55;;;16.70;99.90;;;;;;5074338;28;20043;-80
2022/09/24 10:04:04;;;;;;;11.55;6.90;;;16.70;99.90;;;;;;5086309;28;20036;-84
2022/09/24 10:06:37;;;;;;;14.25;7.40;;;16.80;99.90;;;;;;5109772;28;20047;-82
2022/09/24 10:09:18;;;;;;;17.77;7.00;;;16.70;99.90;;;;;;5083219;28;20024;-81
2022/09/24 10:11:44;;;;;;;8.63;6.82;;;;;;;;;;5084453;28;20024;-82
2022/09/24 10:14:14;;;;;;;12.15;6.75;;;16.70;99.90;;;;;;5104832;28;20032;-84
2022/09/24 10:16:43;;;;;;;9.95;6.70;;;16.70;99.90;;;;;;5083227;28;20024;-84
2022/09/24 10:19:21;;;;;;;10.70;6.90;;;16.60;99.90;;;;;;5081446;28;20032;-84
2022/09/24 10:21:47;;;;;;;9.18;6.53;;;;;;;;;;5086854;28;20028;-81
2022/09/24 10:24:20;;;;;;;9.57;6.63;;;16.80;99.90;;;;;;5088015;28;20447;-82
2022/09/24 10:26:47;;;;;;;9.98;6.38;;;16.90;99.90;;;;;;5090414;28;20035;-82
2022/09/24 10:32:19;;;;;;;11.70;6.65;;;16.80;99.90;;;;;;5087384;28;20102;-84
2022/09/24 10:35:21;;;;;;;11.57;5.80;;;17.00;99.90;;;;;;5087522;28;20024;-82
2022/09/24 10:37:52;;;;;;;12.18;6.78;;;16.90;99.90;;;;;;5064096;28;20040;-82
2022/09/24 10:40:24;;;;;;;10.43;6.10;;;17.00;99.90;;;;;;5078146;28;20044;-82
2022/09/24 10:42:58;;;;;;;12.95;6.68;;;17.00;99.90;;;;;;5082172;28;20025;-82
2022/09/24 10:45:30;;;;;;;11.65;6.28;;;17.10;99.90;;;;;;5081313;28;20083;-82
2022/09/24 10:48:17;;;;;;;12.57;6.07;;;17.20;99.90;;;;;;5101194;28;20028;-83
2022/09/24 10:50:53;;;;;;;11.20;5.50;;;17.30;99.90;;;;;;5088060;28;20020;-84
2022/09/24 10:53:37;;;;;;;12.10;6.05;;;17.60;99.90;;;;;;5083809;28;20032;-82
2022/09/24 10:56:27;;;;;;;12.30;6.13;;;17.80;99.90;;;;;;5085500;28;20096;-83
2022/09/24 10:58:56;;;;;;;;;;;17.80;99.90;;;;;;5106560;28;20028;-86
2022/09/24 11:01:22;;;;;;;7.95;4.95;;;;;;;;;;5083049;28;19923;-84
2022/09/24 11:04:17;;;;;;;9.23;5.40;;;18.00;99.90;;;;;;5087033;28;20028;-84
2022/09/24 11:07:16;;;;;;;11.60;5.13;;;18.30;99.90;;;;;;5084341;28;20090;-82
2022/09/24 11:09:52;;;;;;;10.35;4.57;;;18.20;99.90;;;;;;5085751;28;20024;-82
2022/09/24 11:12:34;;;;;;;8.23;4.50;;;18.10;99.90;;;;;;5086251;28;20028;-82
2022/09/24 11:15:27;;;;;;;6.70;4.10;;;18.20;99.90;;;;;;5107617;28;20025;-83
2022/09/24 11:18:08;;;;;;;9.95;4.10;;;18.20;99.90;;;;;;5094377;28;20088;-80
2022/09/24 11:20:42;;;;;;;8.95;4.32;;;18.40;99.90;;;;;;5085235;28;20020;-81
2022/09/24 11:23:34;;;;;;;7.55;3.88;;;18.40;99.90;;;;;;5086299;28;20500;-83
2022/09/24 11:26:26;;;;;;;8.93;4.15;;;18.40;99.90;;;;;;5091991;28;20099;-79
2022/09/24 11:29:15;;;;;;;6.25;3.95;;;18.40;99.90;;;;;;5082011;28;20017;-80
2022/09/24 11:32:05;;;;;;;8.27;4.33;;;18.60;99.90;;;;;;5078838;28;20477;-82
2022/09/24 11:35:02;;;;;;;8.47;4.80;;;18.60;99.90;;;;;;5077408;28;20031;-81
2022/09/24 11:38:03;;;;;;;7.45;4.03;;;18.80;99.90;;;;;;5099229;28;20035;-83
2022/09/24 11:40:56;;;;;;;6.97;4.00;;;19.00;99.90;;;;;;5087596;28;20039;-81
2022/09/24 11:43:57;;;;;;;9.48;4.68;;;19.40;99.90;;;;;;5071278;28;20036;-81
2022/09/24 11:46:37;;;;;;;7.20;3.70;;;19.30;99.90;;;;;;5093189;28;20050;-79
2022/09/24 11:49:31;;;;;;;21.50;7.65;;;19.20;99.90;;;;;;5106120;28;20035;-86
2022/09/24 11:52:28;;;;;;;11.05;4.55;;;19.10;99.90;;;;;;5102837;28;20012;-81
2022/09/24 11:55:12;;;;;;;5.78;3.20;;;19.10;99.90;;;;;;5084876;28;20044;-89
2022/09/24 11:57:47;;;;;;;6.07;3.58;;;19.00;99.90;;;;;;5101890;28;20031;-82
2022/09/24 12:00:18;;;;;;;12.77;4.50;;;19.00;99.90;;;;;;5084680;28;20016;-80
2022/09/24 12:02:58;;;;;;;23.42;5.20;;;19.00;99.90;;;;;;5078611;28;20044;-83
2022/09/24 12:05:43;;;;;;;12.27;4.03;;;19.00;99.90;;;;;;5085267;28;20033;-84
2022/09/24 12:08:26;;;;;;;9.07;3.70;;;19.00;99.90;;;;;;5084059;28;20020;-81
2022/09/24 12:11:01;;;;;;;12.70;4.15;;;18.70;99.90;;;;;;5089101;28;20057;-82
2022/09/24 12:13:31;;;;;;;9.00;4.57;;;18.80;99.90;;;;;;5083034;28;20054;-85
2022/09/24 12:16:01;;;;;;;10.65;5.30;;;18.70;99.90;;;;;;5085894;28;20028;-82
2022/09/24 12:18:44;;;;;;;7.18;3.88;;;18.70;99.90;;;;;;5086272;28;20024;-82
2022/09/24 12:21:17;;;;;;;8.13;3.80;;;18.70;99.90;;;;;;5101660;28;20024;-83
2022/09/24 12:23:45;;;;;;;11.02;4.00;;;18.70;99.90;;;;;;5083639;28;20024;-83
2022/09/24 12:26:16;;;;;;;7.40;3.83;;;18.80;99.90;;;;;;5085264;28;20516;-84
2022/09/24 12:34:40;;;;;;;4.75;3.53;;;;;;;;;;5098216;28;20046;-83
2022/09/24 12:37:10;;;;;;;8.07;3.53;;;19.00;99.50;;;;;;5084034;28;20016;-79
2022/09/24 12:39:58;;;;;;;6.13;3.22;;;19.10;99.80;;;;;;5105441;28;20031;-82
2022/09/24 12:42:31;;;;;;;6.03;2.72;;;19.50;98.60;;;;;;5082299;28;20024;-84
2022/09/24 12:44:59;;;;;;;6.43;2.80;;;19.50;98.60;;;;;;5089135;28;20012;-83
2022/09/24 12:47:30;;;;;;;5.38;2.72;;;19.60;98.80;;;;;;5107360;28;20080;-84
2022/09/24 12:49:59;;;;;;;6.28;3.22;;;19.70;98.50;;;;;;5088083;28;20032;-79
2022/09/24 12:52:37;;;;;;;6.07;3.25;;;19.60;98.50;;;;;;5089595;28;20020;-83
2022/09/24 12:55:04;;;;;;;6.10;3.15;;;19.60;98.70;;;;;;5099377;28;20047;-83
2022/09/24 12:58:02;;;;;;;7.47;3.45;;;19.60;99.00;;;;;;5090077;28;20469;-83
2022/09/24 13:00:42;;;;;;;7.95;3.15;;;19.60;99.20;;;;;;5101124;28;20021;-83
2022/09/24 13:03:35;;;;;;;8.75;3.17;;;17.90;98.80;;;;;;5078988;28;20107;-83
2022/09/24 13:06:02;;;;;;;6.05;3.45;;;19.40;99.50;;;;;;5097837;28;20044;-84
2022/09/24 13:08:39;;;;;;;7.50;3.58;;;19.30;99.30;;;;;;5094888;28;20080;-81
2022/09/24 13:11:42;;;;;;;6.57;3.78;;;19.20;99.60;;;;;;5083544;28;20043;-83
2022/09/24 13:14:20;;;;;;;9.00;4.13;;;19.10;99.70;;;;;;5086705;28;20049;-84
2022/09/24 13:16:49;;;;;;;8.30;3.60;;;19.10;99.70;;;;;;5076327;28;20020;-83
2022/09/24 13:19:37;;;;;;;8.00;4.33;;;19.00;99.90;;;;;;5095591;28;20020;-83
2022/09/24 13:22:03;;;;;;;6.97;4.10;;;19.00;99.90;;;;;;5077826;28;20157;-84
2022/09/24 13:24:35;;;;;;;9.32;4.63;;;18.90;99.90;;;;;;5093119;28;20025;-84
2022/09/24 13:27:22;;;;;;;8.07;4.47;;;19.00;99.90;;;;;;5072565;28;20052;-81
2022/09/24 13:30:19;;;;;;;6.57;3.38;;;18.90;99.90;;;;;;5069069;28;20095;-83
2022/09/24 13:32:57;;;;;;;6.43;4.00;;;19.00;99.90;;;;;;5086081;28;20060;-90
2022/09/24 13:35:28;;;;;;;7.70;3.60;;;19.00;99.90;;;;;;5092390;28;20013;-82
2022/09/24 13:38:07;;;;;;;6.35;3.55;;;19.00;99.90;;;;;;5080535;28;20016;-84
2022/09/24 13:40:38;;;;;;;8.30;4.10;;;19.00;99.90;;;;;;5100437;28;20028;-81
2022/09/24 13:43:16;;;;;;;13.73;3.30;;;19.10;99.90;;;;;;5080287;28;20044;-85
2022/09/24 13:45:44;;;;;;;6.57;3.40;;;19.00;99.70;;;;;;5079399;28;20508;-82
2022/09/24 13:48:35;;;;;;;7.55;3.05;;;19.00;98.80;;;;;;5075531;28;20017;-82
2022/09/24 13:51:03;;;;;;;7.03;3.22;;;18.90;98.70;;;;;;5075852;28;20047;-83
2022/09/24 13:53:32;;;;;;;6.63;2.95;;;18.80;98.70;;;;;;5081278;28;20028;-81
2022/09/24 13:56:03;;;;;;;10.90;3.47;;;18.70;99.10;;;;;;5073134;28;20111;-85
2022/09/24 13:58:34;;;;;;;5.82;2.90;;;18.70;99.10;;;;;;5076616;28;20032;-81